createdAt,value
2022-10-05T00:01:53.152Z,101363.16
2022-10-05T00:04:24.155Z,101360.03
2022-10-05T00:06:58.089Z,101359.06
2022-10-05T00:09:27.293Z,101364.22
2022-10-05T00:11:53.859Z,101364.28
2022-10-05T00:14:22.288Z,101362.91
2022-10-05T00:16:49.418Z,101358.03
2022-10-05T00:19:30.967Z,101366.19
2022-10-05T00:22:11.348Z,101360.47
2022-10-05T00:24:38.166Z,101353.72
2022-10-05T00:27:18.063Z,101348.56
2022-10-05T00:29:45.451Z,101352.06
2022-10-05T00:32:12.106Z,101358.87
2022-10-05T00:34:39.204Z,101360.06
2022-10-05T00:37:06.722Z,101358.31
2022-10-05T00:39:36.183Z,101354.09
2022-10-05T00:42:02.656Z,101349.34
2022-10-05T00:44:51.129Z,101345.97
2022-10-05T00:47:53.062Z,101349.22
2022-10-05T00:50:46.929Z,101342.03
2022-10-05T00:53:42.544Z,101344.25
2022-10-05T00:56:23.873Z,101348.16
2022-10-05T00:59:31.905Z,101336.38
2022-10-05T01:02:39.968Z,101343.13
2022-10-05T01:05:29.736Z,101344.38
2022-10-05T01:08:21.137Z,101347.22
2022-10-05T01:11:18.977Z,101347.94
2022-10-05T01:14:12.376Z,101347.94
2022-10-05T01:17:37.683Z,101346.03
2022-10-05T01:20:27.261Z,101352.53
2022-10-05T01:23:44.928Z,101362.44
2022-10-05T01:26:25.038Z,101366.78
2022-10-05T01:29:12.512Z,101367.88
2022-10-05T01:32:17.347Z,101369.63
2022-10-05T01:35:08.624Z,101382.50
2022-10-05T01:38:00.366Z,101387.81
2022-10-05T01:40:36.548Z,101391.62
2022-10-05T01:43:26.368Z,101393.91
2022-10-05T01:45:56.102Z,101393.22
2022-10-05T01:48:44.275Z,101393.91
2022-10-05T01:51:37.827Z,101393.34
2022-10-05T01:54:19.514Z,101389.72
2022-10-05T01:57:11.021Z,101385.22
2022-10-05T01:59:59.597Z,101375.47
2022-10-05T02:02:29.169Z,101380.62
2022-10-05T02:05:06.610Z,101382.13
2022-10-05T02:08:08.238Z,101386.84
2022-10-05T02:10:43.516Z,101400.00
2022-10-05T02:13:15.957Z,101385.38
2022-10-05T02:15:48.544Z,101396.63
2022-10-05T02:18:23.285Z,101395.94
2022-10-05T02:20:52.924Z,101396.34
2022-10-05T02:23:24.083Z,101394.97
2022-10-05T02:25:53.118Z,101406.91
2022-10-05T02:28:28.537Z,101405.53
2022-10-05T02:31:01.536Z,101401.38
2022-10-05T02:33:31.080Z,101399.16
2022-10-05T02:36:16.199Z,101399.06
2022-10-05T02:39:26.613Z,101401.75
2022-10-05T02:42:08.616Z,101413.78
2022-10-05T02:44:55.202Z,101412.56
2022-10-05T02:47:51.700Z,101416.63
2022-10-05T02:50:27.255Z,101411.91
2022-10-05T02:53:10.888Z,101417.19
2022-10-05T02:55:54.001Z,101409.87
2022-10-05T02:58:24.909Z,101418.16
2022-10-05T03:01:26.320Z,101418.69
2022-10-05T03:04:04.289Z,101413.66
2022-10-05T03:06:38.357Z,101422.84
2022-10-05T03:09:07.663Z,101419.22
2022-10-05T03:12:10.114Z,101423.28
2022-10-05T03:15:08.671Z,101416.34
2022-10-05T03:17:49.506Z,101419.22
2022-10-05T03:20:16.005Z,101420.69
2022-10-05T03:22:55.968Z,101420.28
2022-10-05T03:25:31.586Z,101416.22
2022-10-05T03:28:06.558Z,101408.19
2022-10-05T03:30:53.202Z,101402.53
2022-10-05T03:33:56.314Z,101395.78
2022-10-05T03:36:33.173Z,101383.31
2022-10-05T03:39:02.561Z,101387.13
2022-10-05T03:41:51.333Z,101378.59
2022-10-05T03:44:27.841Z,101391.72
2022-10-05T03:47:13.186Z,101399.06
2022-10-05T03:50:04.603Z,101403.37
2022-10-05T03:52:57.967Z,101403.13
2022-10-05T03:55:42.598Z,101403.66
2022-10-05T03:58:50.716Z,101407.47
2022-10-05T04:01:22.621Z,101408.41
2022-10-05T04:03:58.283Z,101413.84
2022-10-05T04:06:28.808Z,101410.31
2022-10-05T04:09:14.063Z,101414.38
2022-10-05T04:11:49.018Z,101405.97
2022-10-05T04:14:34.081Z,101413.97
2022-10-05T04:17:25.783Z,101420.19
2022-10-05T04:20:01.069Z,101417.63
2022-10-05T04:22:37.277Z,101419.94
2022-10-05T04:25:17.663Z,101417.47
2022-10-05T04:27:47.843Z,101416.56
2022-10-05T04:30:23.898Z,101426.31
2022-10-05T04:32:57.362Z,101434.72
2022-10-05T04:35:35.663Z,101424.13
2022-10-05T04:38:39.079Z,101435.91
2022-10-05T04:41:20.818Z,101439.28
2022-10-05T04:43:53.430Z,101435.91
2022-10-05T04:46:30.792Z,101427.75
2022-10-05T04:49:06.569Z,101432.72
2022-10-05T04:51:51.514Z,101436.94
2022-10-05T04:54:56.804Z,101447.00
2022-10-05T04:57:31.638Z,101447.78
2022-10-05T05:00:32.213Z,101437.09
2022-10-05T05:03:13.034Z,101435.44
2022-10-05T05:06:16.003Z,101433.41
2022-10-05T05:09:17.425Z,101444.50
2022-10-05T05:12:02.149Z,101448.72
2022-10-05T05:14:55.369Z,101430.06
2022-10-05T05:17:49.925Z,101428.19
2022-10-05T05:20:34.754Z,101422.63
2022-10-05T05:23:20.526Z,101416.13
2022-10-05T05:26:05.387Z,101425.22
2022-10-05T05:28:34.824Z,101431.06
2022-10-05T05:31:16.059Z,101433.63
2022-10-05T05:34:04.099Z,101435.41
2022-10-05T05:36:46.069Z,101428.78
2022-10-05T05:40:07.849Z,101434.72
2022-10-05T05:42:38.160Z,101430.78
2022-10-05T05:45:49.006Z,101443.94
2022-10-05T05:48:24.286Z,101448.41
2022-10-05T05:51:04.094Z,101447.44
2022-10-05T05:53:48.077Z,101456.09
2022-10-05T05:56:19.443Z,101452.41
2022-10-05T05:58:54.449Z,101458.31
2022-10-05T06:01:34.239Z,101460.75
2022-10-05T06:04:26.705Z,101463.44
2022-10-05T06:06:56.847Z,101472.69
2022-10-05T06:09:45.430Z,101482.66
2022-10-05T06:12:23.039Z,101491.91
2022-10-05T06:14:53.104Z,101497.47
2022-10-05T06:17:32.030Z,101502.91
2022-10-05T06:20:05.490Z,101508.97
2022-10-05T06:22:37.371Z,101510.66
2022-10-05T06:25:13.088Z,101507.25
2022-10-05T06:28:00.002Z,101504.13
2022-10-05T06:30:37.798Z,101522.13
2022-10-05T06:33:07.557Z,101526.94
2022-10-05T06:36:00.680Z,101529.44
2022-10-05T06:38:33.314Z,101525.84
2022-10-05T06:41:35.566Z,101533.22
2022-10-05T06:44:21.214Z,101552.84
2022-10-05T06:47:12.440Z,101539.81
2022-10-05T06:49:45.055Z,101528.56
2022-10-05T06:52:41.867Z,101528.47
2022-10-05T06:55:47.120Z,101536.28
2022-10-05T06:58:16.551Z,101536.41
2022-10-05T07:00:52.714Z,101540.00
2022-10-05T07:03:38.456Z,101543.59
2022-10-05T07:06:16.690Z,101546.81
2022-10-05T07:08:49.539Z,101549.84
2022-10-05T07:11:57.364Z,101552.91
2022-10-05T07:14:51.773Z,101564.66
2022-10-05T07:17:32.874Z,101569.72
2022-10-05T07:20:08.783Z,101574.97
2022-10-05T07:22:50.148Z,101585.59
2022-10-05T07:25:32.181Z,101575.87
2022-10-05T07:28:23.343Z,101571.16
2022-10-05T07:31:09.624Z,101567.50
2022-10-05T07:33:47.529Z,101568.63
2022-10-05T07:36:45.029Z,101572.00
2022-10-05T07:39:42.043Z,101560.81
2022-10-05T07:42:28.031Z,101571.63
2022-10-05T07:45:17.140Z,101588.00
2022-10-05T07:48:15.544Z,101579.91
2022-10-05T07:51:00.099Z,101582.66
2022-10-05T07:53:30.469Z,101570.62
2022-10-05T07:56:00.140Z,101570.00
2022-10-05T07:58:34.504Z,101570.31
2022-10-05T08:01:09.893Z,101569.34
2022-10-05T08:03:52.382Z,101565.63
2022-10-05T08:06:37.712Z,101573.91
2022-10-05T08:09:12.867Z,101579.31
2022-10-05T08:11:52.161Z,101573.75
2022-10-05T08:14:37.894Z,101576.97
2022-10-05T08:17:16.464Z,101577.50
2022-10-05T08:20:03.657Z,101581.38
2022-10-05T08:22:40.367Z,101578.44
2022-10-05T08:25:21.150Z,101557.28
2022-10-05T08:28:06.585Z,101560.13
2022-10-05T08:30:40.137Z,101552.84
2022-10-05T08:33:12.695Z,101550.00
2022-10-05T08:35:44.965Z,101544.56
2022-10-05T08:38:24.879Z,101542.22
2022-10-05T08:40:54.711Z,101548.59
2022-10-05T08:44:00.907Z,101541.72
2022-10-05T08:46:59.903Z,101549.84
2022-10-05T08:49:50.999Z,101546.72
2022-10-05T08:52:28.861Z,101533.22
2022-10-05T08:55:07.575Z,101535.50
2022-10-05T08:57:59.878Z,101532.84
2022-10-05T09:00:48.899Z,101541.81
2022-10-05T09:03:20.953Z,101543.41
2022-10-05T09:06:15.626Z,101537.94
2022-10-05T09:09:03.375Z,101537.72
2022-10-05T09:11:53.202Z,101540.62
2022-10-05T09:14:39.208Z,101549.22
2022-10-05T09:17:18.633Z,101553.94
2022-10-05T09:19:48.098Z,101548.50
2022-10-05T09:22:23.644Z,101558.31
2022-10-05T09:24:57.633Z,101570.56
2022-10-05T09:28:07.225Z,101571.03
2022-10-05T09:30:53.356Z,101569.06
2022-10-05T09:33:38.950Z,101565.50
2022-10-05T09:36:12.463Z,101567.84
2022-10-05T09:39:07.072Z,101574.62
2022-10-05T09:41:58.439Z,101570.00
2022-10-05T09:44:34.485Z,101574.75
2022-10-05T09:47:29.176Z,101572.28
2022-10-05T09:50:17.841Z,101575.78
2022-10-05T09:53:19.681Z,101579.88
2022-10-05T09:56:13.283Z,101573.75
2022-10-05T09:58:46.238Z,101569.78
2022-10-05T10:01:34.360Z,101556.16
2022-10-05T10:04:23.337Z,101556.16
2022-10-05T10:07:25.397Z,101557.38
2022-10-05T10:10:30.616Z,101562.06
2022-10-05T10:13:29.479Z,101561.25
2022-10-05T10:16:11.146Z,101566.09
2022-10-05T10:19:12.783Z,101569.56
2022-10-05T10:22:01.944Z,101561.16
2022-10-05T10:24:53.962Z,101554.12
2022-10-05T10:27:36.279Z,101551.84
2022-10-05T10:30:28.397Z,101551.72
2022-10-05T10:33:05.588Z,101561.72
2022-10-05T10:35:38.083Z,101555.63
2022-10-05T10:38:30.507Z,101551.72
2022-10-05T10:41:34.502Z,101552.50
2022-10-05T10:44:58.987Z,101555.03
2022-10-05T10:47:49.916Z,101557.31
2022-10-05T10:51:00.994Z,101550.31
2022-10-05T10:54:15.543Z,101553.13
2022-10-05T10:57:03.228Z,101555.28
2022-10-05T11:00:20.500Z,101542.94
2022-10-05T11:03:14.382Z,101549.25
2022-10-05T11:06:04.905Z,101549.72
2022-10-05T11:08:46.531Z,101556.06
2022-10-05T11:11:28.349Z,101555.63
2022-10-05T11:14:14.544Z,101546.53
2022-10-05T11:17:05.568Z,101549.19
2022-10-05T11:20:04.010Z,101542.22
2022-10-05T11:22:54.486Z,101541.31
2022-10-05T11:25:35.371Z,101535.75
2022-10-05T11:28:27.561Z,101531.50
2022-10-05T11:31:06.625Z,101524.56
2022-10-05T11:34:01.390Z,101528.56
2022-10-05T11:36:44.471Z,101531.47
2022-10-05T11:39:21.736Z,101520.69
2022-10-05T11:41:57.301Z,101521.91
2022-10-05T11:44:51.843Z,101510.19
2022-10-05T11:47:28.813Z,101514.28
2022-10-05T11:50:14.243Z,101512.84
2022-10-05T11:53:02.001Z,101504.84
2022-10-05T11:55:42.659Z,101502.47
2022-10-05T11:58:20.444Z,101509.38
2022-10-05T12:00:54.605Z,101495.31
2022-10-05T12:03:40.140Z,101499.13
2022-10-05T12:06:39.738Z,101494.75
2022-10-05T12:09:31.075Z,101496.06
2022-10-05T12:12:18.155Z,101496.34
2022-10-05T12:14:51.573Z,101492.25
2022-10-05T12:17:38.661Z,101481.47
2022-10-05T12:20:17.087Z,101489.41
2022-10-05T12:23:17.762Z,101486.22
2022-10-05T12:26:00.305Z,101488.03
2022-10-05T12:28:42.819Z,101480.87
2022-10-05T12:31:40.046Z,101483.00
2022-10-05T12:34:18.615Z,101483.25
2022-10-05T12:37:03.916Z,101477.59
2022-10-05T12:39:48.795Z,101476.78
2022-10-05T12:42:24.699Z,101478.69
2022-10-05T12:45:18.707Z,101474.31
2022-10-05T12:48:07.394Z,101470.53
2022-10-05T12:50:51.222Z,101467.16
2022-10-05T12:53:42.912Z,101463.47
2022-10-05T12:56:16.286Z,101467.91
2022-10-05T12:59:10.872Z,101460.66
2022-10-05T13:01:48.346Z,101456.09
2022-10-05T13:04:33.651Z,101458.47
2022-10-05T13:07:21.584Z,101451.03
2022-10-05T13:10:19.320Z,101447.37
2022-10-05T13:13:01.117Z,101451.72
2022-10-05T13:15:34.633Z,101446.28
2022-10-05T13:18:18.702Z,101449.59
2022-10-05T13:20:48.928Z,101443.69
2022-10-05T13:23:53.727Z,101446.81
2022-10-05T13:26:29.645Z,101454.72
2022-10-05T13:29:03.339Z,101452.91
2022-10-05T13:31:54.348Z,101447.59
2022-10-05T13:34:42.676Z,101448.34
2022-10-05T13:37:09.169Z,101459.16
2022-10-05T13:40:14.562Z,101452.38
2022-10-05T13:42:48.270Z,101446.09
2022-10-05T13:45:17.847Z,101438.84
2022-10-05T13:47:58.856Z,101437.81
2022-10-05T13:50:33.402Z,101439.22
2022-10-05T13:53:32.987Z,101433.19
2022-10-05T13:56:08.256Z,101421.09
2022-10-05T13:59:04.923Z,101436.69
2022-10-05T14:01:41.443Z,101428.97
2022-10-05T14:04:27.441Z,101429.44
2022-10-05T14:06:54.163Z,101428.53
2022-10-05T14:09:20.670Z,101427.09
2022-10-05T14:11:53.908Z,101434.78
2022-10-05T14:14:26.531Z,101429.63
2022-10-05T14:16:56.445Z,101434.97
2022-10-05T14:19:30.337Z,101442.09
2022-10-05T14:22:12.215Z,101437.56
2022-10-05T14:24:50.676Z,101436.31
2022-10-05T14:27:27.380Z,101439.97
2022-10-05T14:30:00.582Z,101447.75
2022-10-05T14:32:31.951Z,101434.31
2022-10-05T14:35:07.737Z,101441.47
2022-10-05T14:37:49.339Z,101438.81
2022-10-05T14:40:22.114Z,101436.09
2022-10-05T14:42:49.969Z,101443.09
2022-10-05T14:45:20.515Z,101434.06
2022-10-05T14:47:52.784Z,101433.69
2022-10-05T14:50:29.807Z,101434.50
2022-10-05T14:53:17.395Z,101431.00
2022-10-05T14:55:55.388Z,101423.47
2022-10-05T14:58:46.636Z,101429.84
2022-10-05T15:01:32.723Z,101432.06
2022-10-05T15:04:30.578Z,101442.63
2022-10-05T15:07:28.559Z,101445.09
2022-10-05T15:09:55.054Z,101435.59
2022-10-05T15:12:31.972Z,101431.81
2022-10-05T15:15:32.044Z,101420.91
2022-10-05T15:18:06.762Z,101418.56
2022-10-05T15:20:39.242Z,101413.53
2022-10-05T15:23:38.308Z,101404.25
2022-10-05T15:26:26.291Z,101388.50
2022-10-05T15:29:01.828Z,101396.19
2022-10-05T15:31:40.637Z,101404.06
2022-10-05T15:34:33.920Z,101400.34
2022-10-05T15:37:09.915Z,101401.12
2022-10-05T15:39:44.233Z,101416.19
2022-10-05T15:42:14.668Z,101425.09
2022-10-05T15:45:09.068Z,101416.47
2022-10-05T15:48:07.611Z,101410.91
2022-10-05T15:50:57.178Z,101408.00
2022-10-05T15:53:37.781Z,101402.87
2022-10-05T15:56:13.204Z,101392.06
2022-10-05T15:58:51.282Z,101395.78
2022-10-05T16:01:47.247Z,101394.19
2022-10-05T16:04:23.255Z,101399.50
2022-10-05T16:07:16.470Z,101404.78
2022-10-05T16:10:15.524Z,101401.81
2022-10-05T16:13:09.339Z,101399.25
2022-10-05T16:15:39.190Z,101404.91
2022-10-05T16:18:55.432Z,101405.72
2022-10-05T16:21:32.229Z,101394.69
2022-10-05T16:24:24.398Z,101403.34
2022-10-05T16:27:06.514Z,101401.16
2022-10-05T16:29:33.042Z,101409.41
2022-10-05T16:32:05.778Z,101408.81
2022-10-05T16:34:49.373Z,101414.84
2022-10-05T16:37:31.371Z,101421.28
2022-10-05T16:40:06.930Z,101416.03
2022-10-05T16:42:46.636Z,101418.78
2022-10-05T16:45:47.843Z,101421.56
2022-10-05T16:48:27.410Z,101426.13
2022-10-05T16:51:07.878Z,101439.38
2022-10-05T16:53:59.177Z,101441.53
2022-10-05T16:56:34.226Z,101440.28
2022-10-05T16:59:30.108Z,101443.44
2022-10-05T17:02:24.474Z,101441.41
2022-10-05T17:05:10.326Z,101438.53
2022-10-05T17:07:36.869Z,101444.09
2022-10-05T17:10:28.496Z,101449.25
2022-10-05T17:13:33.010Z,101443.78
2022-10-05T17:16:37.518Z,101458.59
2022-10-05T17:19:46.624Z,101454.94
2022-10-05T17:22:24.249Z,101448.25
2022-10-05T17:25:24.314Z,101453.34
2022-10-05T17:27:53.003Z,101452.88
2022-10-05T17:30:23.595Z,101451.97
2022-10-05T17:33:04.603Z,101451.31
2022-10-05T17:35:50.886Z,101451.88
2022-10-05T17:38:41.863Z,101453.25
2022-10-05T17:41:25.062Z,101451.56
2022-10-05T17:44:06.891Z,101458.50
2022-10-05T17:46:46.664Z,101464.09
2022-10-05T17:49:38.157Z,101469.50
2022-10-05T17:52:40.862Z,101466.19
2022-10-05T17:55:34.199Z,101470.53
2022-10-05T17:58:23.992Z,101471.06
2022-10-05T18:00:56.993Z,101463.25
2022-10-05T18:03:41.515Z,101471.44
2022-10-05T18:06:26.345Z,101470.72
2022-10-05T18:09:21.896Z,101463.87
2022-10-05T18:12:26.976Z,101472.25
2022-10-05T18:15:36.405Z,101462.72
2022-10-05T18:18:54.737Z,101458.53
2022-10-05T18:21:30.482Z,101463.09
2022-10-05T18:23:58.765Z,101467.84
2022-10-05T18:27:07.115Z,101463.63
2022-10-05T18:30:05.861Z,101462.81
2022-10-05T18:32:47.823Z,101456.44
2022-10-05T18:35:28.067Z,101460.41
2022-10-05T18:38:31.964Z,101455.38
2022-10-05T18:40:59.195Z,101456.72
2022-10-05T18:43:49.018Z,101459.66
2022-10-05T18:46:15.568Z,101459.78
2022-10-05T18:48:54.250Z,101461.75
2022-10-05T18:51:54.688Z,101457.53
2022-10-05T18:54:39.424Z,101452.84
2022-10-05T18:57:50.898Z,101456.16
2022-10-05T19:00:25.223Z,101457.31
2022-10-05T19:03:00.788Z,101453.91
2022-10-05T19:05:52.129Z,101453.63
2022-10-05T19:08:50.853Z,101464.56
2022-10-05T19:11:55.219Z,101464.44
2022-10-05T19:14:32.197Z,101462.19
2022-10-05T19:17:25.675Z,101457.16
2022-10-05T19:19:58.446Z,101460.31
2022-10-05T19:22:51.132Z,101460.37
2022-10-05T19:25:32.878Z,101458.31
2022-10-05T19:28:18.047Z,101466.63
2022-10-05T19:31:30.040Z,101459.53
2022-10-05T19:34:28.545Z,101471.44
2022-10-05T19:37:08.239Z,101469.53
2022-10-05T19:39:43.083Z,101482.44
2022-10-05T19:42:31.260Z,101475.78
2022-10-05T19:45:12.851Z,101478.72
2022-10-05T19:47:51.645Z,101478.44
2022-10-05T19:50:27.539Z,101477.78
2022-10-05T19:53:10.339Z,101476.53
2022-10-05T19:55:39.609Z,101482.06
2022-10-05T19:58:18.593Z,101487.81
2022-10-05T20:00:57.534Z,101489.44
2022-10-05T20:03:29.807Z,101487.97
2022-10-05T20:06:01.263Z,101487.41
2022-10-05T20:08:39.340Z,101490.34
2022-10-05T20:11:11.908Z,101491.34
2022-10-05T20:13:43.664Z,101496.72
2022-10-05T20:16:28.932Z,101495.94
2022-10-05T20:19:14.280Z,101501.91
2022-10-05T20:21:45.603Z,101499.38
2022-10-05T20:24:15.123Z,101494.19
2022-10-05T20:27:03.529Z,101496.62
2022-10-05T20:29:51.254Z,101499.56
2022-10-05T20:32:18.193Z,101503.97
2022-10-05T20:34:49.338Z,101512.72
2022-10-05T20:37:18.443Z,101506.25
2022-10-05T20:39:45.444Z,101499.44
2022-10-05T20:42:12.035Z,101512.91
2022-10-05T20:44:38.734Z,101503.19
2022-10-05T20:47:09.553Z,101505.47
2022-10-05T20:49:37.790Z,101510.34
2022-10-05T20:52:05.946Z,101508.88
2022-10-05T20:54:32.745Z,101510.34
2022-10-05T20:56:59.399Z,101507.41
2022-10-05T20:59:26.769Z,101508.41
2022-10-05T21:01:53.474Z,101512.94
2022-10-05T21:04:22.682Z,101513.41
2022-10-05T21:06:49.675Z,101510.19
2022-10-05T21:09:21.325Z,101512.63
2022-10-05T21:11:50.142Z,101515.72
2022-10-05T21:14:17.115Z,101511.00
2022-10-05T21:16:45.803Z,101514.56
2022-10-05T21:19:14.352Z,101511.00
2022-10-05T21:21:42.684Z,101511.47
2022-10-05T21:24:11.243Z,101514.91
2022-10-05T21:26:37.783Z,101518.31
2022-10-05T21:29:07.875Z,101508.09
2022-10-05T21:31:38.310Z,101509.72
2022-10-05T21:34:04.980Z,101513.59
2022-10-05T21:36:32.567Z,101512.75
2022-10-05T21:38:59.618Z,101515.69
2022-10-05T21:41:26.795Z,101506.62
2022-10-05T21:43:53.644Z,101503.34
2022-10-05T21:46:22.792Z,101510.50
2022-10-05T21:48:49.901Z,101513.59
2022-10-05T21:51:18.863Z,101510.34
2022-10-05T21:53:56.855Z,101510.84
2022-10-05T21:56:28.190Z,101511.00
2022-10-05T21:58:55.122Z,101501.06
2022-10-05T22:01:22.844Z,101503.53
2022-10-05T22:03:49.894Z,101499.47
2022-10-05T22:06:16.549Z,101504.00
2022-10-05T22:08:43.117Z,101493.78
2022-10-05T22:11:17.875Z,101506.09
2022-10-05T22:13:49.396Z,101491.34
2022-10-05T22:16:18.308Z,101493.28
2022-10-05T22:18:45.458Z,101492.97
2022-10-05T22:21:13.999Z,101492.97
2022-10-05T22:23:42.132Z,101496.06
2022-10-05T22:26:11.182Z,101491.50
2022-10-05T22:28:39.869Z,101491.84
2022-10-05T22:31:09.611Z,101495.88
2022-10-05T22:33:37.231Z,101496.88
2022-10-05T22:36:05.595Z,101487.59
2022-10-05T22:38:32.343Z,101490.84
2022-10-05T22:40:59.006Z,101489.06
2022-10-05T22:43:27.140Z,101485.81
2022-10-05T22:45:54.650Z,101486.47
2022-10-05T22:48:21.447Z,101480.13
2022-10-05T22:50:48.889Z,101477.03
2022-10-05T22:53:15.675Z,101477.19
2022-10-05T22:59:22.966Z,101475.75
2022-10-05T23:01:49.577Z,101482.09
2022-10-05T23:04:16.198Z,101462.97
2022-10-05T23:06:42.799Z,101474.31
2022-10-05T23:09:09.318Z,101477.25
2022-10-05T23:11:35.846Z,101470.59
2022-10-05T23:14:02.415Z,101465.06
2022-10-05T23:16:29.825Z,101468.97
2022-10-05T23:18:56.580Z,101460.53
2022-10-05T23:21:25.223Z,101459.41
2022-10-05T23:23:51.887Z,101453.41
2022-10-05T23:26:23.878Z,101458.09
2022-10-05T23:28:50.827Z,101453.22
2022-10-05T23:31:23.291Z,101451.75
2022-10-05T23:33:50.003Z,101449.03
2022-10-05T23:36:19.370Z,101457.13
2022-10-05T23:38:46.259Z,101450.81
2022-10-05T23:41:12.994Z,101457.59
2022-10-05T23:43:40.208Z,101455.53
2022-10-05T23:46:07.967Z,101455.38
2022-10-05T23:48:38.002Z,101451.94
2022-10-05T23:51:10.766Z,101450.34
2022-10-05T23:53:37.905Z,101458.13
2022-10-05T23:56:04.824Z,101454.19
2022-10-05T23:58:31.972Z,101451.59
